createdAt,value
2017-10-13T00:01:06.814Z,100340.72
2017-10-13T00:03:34.314Z,100334.38
2017-10-13T00:06:01.799Z,100343.25
2017-10-13T00:08:29.261Z,100341.18
2017-10-13T00:10:56.738Z,100345.88
2017-10-13T00:13:24.258Z,100336.49
2017-10-13T00:15:51.723Z,100339.81
2017-10-13T00:18:19.188Z,100341.14
2017-10-13T00:20:46.694Z,100335.94
2017-10-13T00:23:14.164Z,100337.33
2017-10-13T00:25:41.686Z,100339.27
2017-10-13T00:28:09.172Z,100336.26
2017-10-13T00:30:36.638Z,100332.41
2017-10-13T00:33:04.169Z,100343.41
2017-10-13T00:35:31.674Z,100339.61
2017-10-13T00:37:59.135Z,100344.42
2017-10-13T00:40:26.605Z,100341.53
2017-10-13T00:42:54.111Z,100341.92
2017-10-13T00:45:21.579Z,100337.08
2017-10-13T00:47:49.080Z,100338.72
2017-10-13T00:50:16.649Z,100335.28
2017-10-13T00:52:44.111Z,100333.29
2017-10-13T00:55:11.571Z,100335.20
2017-10-13T00:57:39.081Z,100335.06
2017-10-13T01:00:06.547Z,100343.24
2017-10-13T01:02:34.129Z,100359.66
2017-10-13T01:05:01.648Z,100340.95
2017-10-13T01:07:29.142Z,100357.87
2017-10-13T01:09:56.602Z,100346.41
2017-10-13T01:12:24.147Z,100356.72
2017-10-13T01:14:51.645Z,100350.19
2017-10-13T01:17:19.135Z,100356.02
2017-10-13T01:19:46.648Z,100359.59
2017-10-13T01:22:14.171Z,100361.18
2017-10-13T01:24:41.652Z,100367.22
2017-10-13T01:27:09.146Z,100356.38
2017-10-13T01:29:36.643Z,100361.89
2017-10-13T01:32:04.119Z,100364.19
2017-10-13T01:34:31.919Z,100360.97
2017-10-13T01:36:59.402Z,100361.61
2017-10-13T01:39:26.918Z,100359.81
2017-10-13T01:41:54.419Z,100357.74
2017-10-13T01:44:21.888Z,100363.48
2017-10-13T01:46:49.368Z,100367.33
2017-10-13T01:49:16.873Z,100357.07
2017-10-13T01:51:44.354Z,100351.41
2017-10-13T01:54:11.855Z,100346.04
2017-10-13T01:56:39.359Z,100352.63
2017-10-13T01:59:06.835Z,100354.80
2017-10-13T02:01:34.297Z,100346.82
2017-10-13T02:04:01.781Z,100347.70
2017-10-13T02:06:29.410Z,100346.33
2017-10-13T02:08:56.910Z,100342.16
2017-10-13T02:11:24.388Z,100346.61
2017-10-13T02:13:51.859Z,100345.53
2017-10-13T02:16:19.351Z,100346.95
2017-10-13T02:18:46.974Z,100339.95
2017-10-13T02:21:14.468Z,100359.20
2017-10-13T02:23:41.975Z,100360.44
2017-10-13T02:26:09.484Z,100358.36
2017-10-13T02:28:37.017Z,100362.08
2017-10-13T02:31:04.515Z,100385.91
2017-10-13T02:33:32.017Z,100356.66
2017-10-13T02:35:59.482Z,100365.69
2017-10-13T02:38:26.959Z,100371.10
2017-10-13T02:40:54.435Z,100367.26
2017-10-13T02:43:21.908Z,100364.96
2017-10-13T02:45:49.384Z,100362.44
2017-10-13T02:48:16.864Z,100378.86
2017-10-13T02:50:44.350Z,100366.47
2017-10-13T02:53:11.829Z,100366.98
2017-10-13T02:55:39.334Z,100363.83
2017-10-13T02:58:06.817Z,100377.22
2017-10-13T03:00:34.473Z,100380.13
2017-10-13T03:03:01.980Z,100364.75
2017-10-13T03:05:29.437Z,100381.09
2017-10-13T03:07:56.911Z,100374.65
2017-10-13T03:10:24.422Z,100374.29
2017-10-13T03:12:51.887Z,100381.58
2017-10-13T03:15:19.391Z,100386.80
2017-10-13T03:17:46.890Z,100390.63
2017-10-13T03:20:14.424Z,100377.55
2017-10-13T03:22:41.884Z,100387.61
2017-10-13T03:25:09.412Z,100381.96
2017-10-13T03:27:36.894Z,100383.60
2017-10-13T03:30:04.384Z,100384.03
2017-10-13T03:32:31.880Z,100382.09
2017-10-13T03:34:59.352Z,100398.42
2017-10-13T03:37:26.835Z,100390.23
2017-10-13T03:39:54.371Z,100383.24
2017-10-13T03:42:21.841Z,100398.09
2017-10-13T03:44:49.366Z,100394.50
2017-10-13T03:47:16.838Z,100391.00
2017-10-13T03:49:44.406Z,100397.12
2017-10-13T03:52:11.904Z,100394.08
2017-10-13T03:54:39.389Z,100392.84
2017-10-13T03:57:06.870Z,100393.76
2017-10-13T03:59:34.339Z,100398.96
2017-10-13T04:02:01.819Z,100397.80
2017-10-13T04:04:29.300Z,100414.27
2017-10-13T04:06:56.770Z,100398.36
2017-10-13T04:09:24.278Z,100407.93
2017-10-13T04:11:51.758Z,100393.80
2017-10-13T04:14:19.257Z,100392.89
2017-10-13T04:16:46.818Z,100411.80
2017-10-13T04:19:14.281Z,100390.30
2017-10-13T04:21:41.782Z,100385.16
2017-10-13T04:24:09.297Z,100399.01
2017-10-13T04:26:36.784Z,100407.24
2017-10-13T04:29:04.229Z,100405.03
2017-10-13T04:31:31.742Z,100394.17
2017-10-13T04:33:59.255Z,100402.45
2017-10-13T04:36:26.795Z,100392.25
2017-10-13T04:38:54.868Z,100390.70
2017-10-13T04:41:22.339Z,100388.41
2017-10-13T04:43:49.832Z,100389.37
2017-10-13T04:46:17.329Z,100396.93
2017-10-13T04:48:44.941Z,100394.03
2017-10-13T04:51:12.523Z,100397.73
2017-10-13T04:53:40.018Z,100396.14
2017-10-13T04:56:07.488Z,100406.87
2017-10-13T04:58:34.955Z,100404.88
2017-10-13T05:01:02.448Z,100401.88
2017-10-13T05:03:29.951Z,100409.45
2017-10-13T05:05:57.445Z,100404.56
2017-10-13T05:08:24.967Z,100408.66
2017-10-13T05:10:52.459Z,100398.77
2017-10-13T05:13:19.941Z,100406.45
2017-10-13T05:15:47.428Z,100413.22
2017-10-13T05:18:14.894Z,100419.39
2017-10-13T05:20:42.382Z,100427.48
2017-10-13T05:23:09.867Z,100431.25
2017-10-13T05:25:37.347Z,100434.57
2017-10-13T05:28:04.835Z,100447.41
2017-10-13T05:30:32.361Z,100442.14
2017-10-13T05:32:59.841Z,100442.41
2017-10-13T05:35:27.302Z,100436.51
2017-10-13T05:37:54.790Z,100438.44
2017-10-13T05:40:22.248Z,100447.88
2017-10-13T05:42:49.727Z,100440.14
2017-10-13T05:45:17.301Z,100445.56
2017-10-13T05:47:44.791Z,100451.16
2017-10-13T05:50:12.276Z,100439.02
2017-10-13T05:52:39.773Z,100450.55
2017-10-13T05:55:07.261Z,100447.31
2017-10-13T05:57:34.745Z,100449.47
2017-10-13T06:00:02.229Z,100454.61
2017-10-13T06:02:29.701Z,100451.80
2017-10-13T06:04:57.240Z,100462.91
2017-10-13T06:07:24.726Z,100458.60
2017-10-13T06:09:52.238Z,100471.37
2017-10-13T06:12:19.738Z,100466.06
2017-10-13T06:14:47.261Z,100467.31
2017-10-13T06:17:14.762Z,100474.48
2017-10-13T06:19:42.237Z,100479.53
2017-10-13T06:22:09.729Z,100482.41
2017-10-13T06:24:37.244Z,100485.74
2017-10-13T06:27:04.752Z,100469.98
2017-10-13T06:29:32.231Z,100469.72
2017-10-13T06:31:59.698Z,100467.13
2017-10-13T06:34:27.155Z,100470.08
2017-10-13T06:36:54.738Z,100472.44
2017-10-13T06:39:22.209Z,100468.78
2017-10-13T06:41:49.691Z,100478.26
2017-10-13T06:44:17.314Z,100479.30
2017-10-13T06:46:44.901Z,100486.11
2017-10-13T06:49:12.364Z,100483.02
2017-10-13T06:51:39.864Z,100488.88
2017-10-13T06:54:07.351Z,100493.19
2017-10-13T06:56:34.814Z,100494.22
2017-10-13T06:59:02.288Z,100497.30
2017-10-13T07:01:29.736Z,100502.63
2017-10-13T07:03:57.211Z,100502.25
2017-10-13T07:06:24.717Z,100500.48
2017-10-13T07:08:52.201Z,100500.59
2017-10-13T07:11:19.686Z,100502.45
2017-10-13T07:13:47.205Z,100505.98
2017-10-13T07:16:14.722Z,100524.95
2017-10-13T07:18:42.291Z,100501.57
2017-10-13T07:21:09.828Z,100506.94
2017-10-13T07:23:37.296Z,100515.47
2017-10-13T07:26:04.764Z,100511.59
2017-10-13T07:28:32.372Z,100527.97
2017-10-13T07:30:59.850Z,100506.53
2017-10-13T07:33:27.297Z,100515.33
2017-10-13T07:35:54.769Z,100513.12
2017-10-13T07:38:22.233Z,100509.51
2017-10-13T07:40:49.708Z,100503.35
2017-10-13T07:43:17.233Z,100505.80
2017-10-13T07:45:44.706Z,100513.39
2017-10-13T07:48:12.174Z,100509.62
2017-10-13T07:50:40.420Z,100506.58
2017-10-13T07:53:07.897Z,100506.86
2017-10-13T07:55:35.387Z,100505.86
2017-10-13T07:58:02.897Z,100501.25
2017-10-13T08:00:30.552Z,100507.05
2017-10-13T08:02:58.016Z,100507.66
2017-10-13T08:05:25.549Z,100507.55
2017-10-13T08:07:53.020Z,100512.08
2017-10-13T08:10:20.485Z,100520.31
2017-10-13T08:12:47.983Z,100525.08
2017-10-13T08:15:15.452Z,100520.58
2017-10-13T08:17:42.910Z,100531.06
2017-10-13T08:20:11.135Z,100525.76
2017-10-13T08:22:38.637Z,100536.71
2017-10-13T08:25:06.172Z,100534.41
2017-10-13T08:27:33.652Z,100534.02
2017-10-13T08:30:01.164Z,100535.19
2017-10-13T08:32:28.661Z,100530.42
2017-10-13T08:34:56.173Z,100531.57
2017-10-13T08:37:23.669Z,100531.47
2017-10-13T08:39:51.136Z,100555.08
2017-10-13T08:42:18.634Z,100553.53
2017-10-13T08:44:46.093Z,100531.78
2017-10-13T08:47:13.551Z,100531.89
2017-10-13T08:49:41.046Z,100541.50
2017-10-13T08:52:08.518Z,100546.37
2017-10-13T08:54:36.044Z,100545.91
2017-10-13T08:57:03.561Z,100549.88
2017-10-13T08:59:31.057Z,100531.01
2017-10-13T09:01:58.542Z,100530.66
2017-10-13T09:04:26.058Z,100538.20
2017-10-13T09:06:53.546Z,100540.29
2017-10-13T09:09:21.067Z,100546.06
2017-10-13T09:11:48.600Z,100541.34
2017-10-13T09:14:16.085Z,100546.72
2017-10-13T09:16:43.550Z,100548.88
2017-10-13T09:19:11.113Z,100540.82
2017-10-13T09:21:38.623Z,100557.95
2017-10-13T09:24:06.105Z,100551.76
2017-10-13T09:26:33.593Z,100546.01
2017-10-13T09:29:01.068Z,100548.52
2017-10-13T09:31:28.619Z,100533.86
2017-10-13T09:33:56.119Z,100545.17
2017-10-13T09:36:23.581Z,100538.47
2017-10-13T09:38:51.072Z,100548.97
2017-10-13T09:41:18.559Z,100538.36
2017-10-13T09:43:46.056Z,100541.84
2017-10-13T09:46:13.529Z,100534.44
2017-10-13T09:48:41.175Z,100537.95
2017-10-13T09:51:08.659Z,100533.06
2017-10-13T09:53:36.130Z,100532.41
2017-10-13T09:56:03.620Z,100539.19
2017-10-13T09:58:31.085Z,100554.65
2017-10-13T10:00:58.597Z,100556.84
2017-10-13T10:03:26.143Z,100536.42
2017-10-13T10:05:53.604Z,100532.52
2017-10-13T10:08:21.069Z,100542.30
2017-10-13T10:10:48.574Z,100543.67
2017-10-13T10:13:16.059Z,100568.41
2017-10-13T10:15:43.534Z,100536.41
2017-10-13T10:18:11.453Z,100549.67
2017-10-13T10:20:38.907Z,100555.97
2017-10-13T10:23:06.454Z,100550.97
2017-10-13T10:25:33.960Z,100547.66
2017-10-13T10:28:01.623Z,100551.45
2017-10-13T10:30:29.085Z,100543.78
2017-10-13T10:32:56.619Z,100535.16
2017-10-13T10:35:24.094Z,100553.92
2017-10-13T10:37:51.561Z,100532.85
2017-10-13T10:40:19.055Z,100547.69
2017-10-13T10:42:46.549Z,100520.00
2017-10-13T10:45:14.049Z,100514.87
2017-10-13T10:47:41.579Z,100534.05
2017-10-13T10:50:09.080Z,100517.41
2017-10-13T10:52:36.569Z,100514.17
2017-10-13T10:55:04.039Z,100523.39
2017-10-13T10:57:31.494Z,100514.24
2017-10-13T10:59:58.962Z,100513.64
2017-10-13T11:02:26.443Z,100509.66
2017-10-13T11:04:53.912Z,100525.22
2017-10-13T11:07:21.389Z,100522.19
2017-10-13T11:09:48.874Z,100519.31
2017-10-13T11:12:16.336Z,100506.66
2017-10-13T11:14:43.792Z,100503.83
2017-10-13T11:17:11.267Z,100502.72
2017-10-13T11:19:39.188Z,100510.06
2017-10-13T11:22:07.784Z,100505.45
2017-10-13T11:24:35.262Z,100496.13
2017-10-13T11:27:02.748Z,100510.00
2017-10-13T11:29:30.225Z,100506.41
2017-10-13T11:31:57.717Z,100495.79
2017-10-13T11:34:25.190Z,100494.33
2017-10-13T11:36:52.704Z,100487.61
2017-10-13T11:39:20.184Z,100486.76
2017-10-13T11:41:48.007Z,100498.92
2017-10-13T11:44:15.546Z,100478.81
2017-10-13T11:46:43.068Z,100485.17
2017-10-13T11:49:10.546Z,100475.56
2017-10-13T11:51:37.998Z,100473.52
2017-10-13T11:54:05.538Z,100470.61
2017-10-13T11:56:33.022Z,100480.13
2017-10-13T11:59:00.594Z,100478.41
2017-10-13T12:01:28.080Z,100484.52
2017-10-13T12:03:55.572Z,100482.95
2017-10-13T12:06:23.048Z,100486.08
2017-10-13T12:08:50.533Z,100469.14
2017-10-13T12:11:18.025Z,100471.71
2017-10-13T12:13:46.429Z,100462.05
2017-10-13T12:16:14.067Z,100469.87
2017-10-13T12:18:41.599Z,100453.66
2017-10-13T12:21:09.073Z,100456.64
2017-10-13T12:23:36.629Z,100447.91
2017-10-13T12:26:04.124Z,100441.16
2017-10-13T12:28:31.580Z,100437.23
2017-10-13T12:30:59.106Z,100446.23
2017-10-13T12:33:26.600Z,100438.41
2017-10-13T12:35:54.461Z,100438.43
2017-10-13T12:38:21.944Z,100443.81
2017-10-13T12:40:49.449Z,100441.95
2017-10-13T12:43:16.937Z,100431.40
2017-10-13T12:45:44.437Z,100437.09
2017-10-13T12:48:11.983Z,100427.66
2017-10-13T12:50:39.453Z,100418.69
2017-10-13T12:53:07.015Z,100439.16
2017-10-13T12:55:34.506Z,100417.25
2017-10-13T12:58:01.969Z,100425.72
2017-10-13T13:00:29.472Z,100422.06
2017-10-13T13:02:56.944Z,100414.53
2017-10-13T13:05:24.440Z,100415.72
2017-10-13T13:07:52.288Z,100412.00
2017-10-13T13:10:19.778Z,100421.30
2017-10-13T13:12:47.342Z,100414.71
2017-10-13T13:15:14.880Z,100441.86
2017-10-13T13:17:42.375Z,100430.15
2017-10-13T13:20:09.938Z,100418.80
2017-10-13T13:22:37.433Z,100422.92
2017-10-13T13:25:04.963Z,100417.71
2017-10-13T13:27:32.638Z,100423.14
2017-10-13T13:30:00.176Z,100407.23
2017-10-13T13:32:27.663Z,100404.27
2017-10-13T13:34:55.215Z,100418.68
2017-10-13T13:37:22.714Z,100411.27
2017-10-13T13:39:50.287Z,100415.88
2017-10-13T13:42:17.797Z,100414.54
2017-10-13T13:44:45.342Z,100430.46
2017-10-13T13:47:12.798Z,100407.41
2017-10-13T13:49:40.279Z,100407.89
2017-10-13T13:52:07.769Z,100408.00
2017-10-13T13:54:35.248Z,100404.49
2017-10-13T13:57:02.790Z,100400.84
2017-10-13T13:59:30.285Z,100414.62
2017-10-13T14:01:57.776Z,100404.99
2017-10-13T14:04:25.408Z,100408.52
2017-10-13T14:06:52.927Z,100398.80
2017-10-13T14:09:20.419Z,100410.16
2017-10-13T14:11:47.941Z,100420.56
2017-10-13T14:14:15.484Z,100433.03
2017-10-13T14:16:42.955Z,100409.98
2017-10-13T14:19:10.449Z,100406.66
2017-10-13T14:21:37.953Z,100412.84
2017-10-13T14:24:05.426Z,100417.64
2017-10-13T14:26:32.919Z,100408.02
2017-10-13T14:29:00.443Z,100405.04
2017-10-13T14:31:27.937Z,100409.78
2017-10-13T14:33:55.617Z,100397.84
2017-10-13T14:36:23.146Z,100388.49
2017-10-13T14:38:50.637Z,100393.16
2017-10-13T14:41:18.117Z,100392.73
2017-10-13T14:43:45.613Z,100391.28
2017-10-13T14:46:13.115Z,100395.66
2017-10-13T14:48:40.657Z,100398.02
2017-10-13T14:51:08.239Z,100387.55
2017-10-13T14:53:35.723Z,100395.45
2017-10-13T14:56:03.204Z,100395.65
2017-10-13T14:58:30.960Z,100398.12
2017-10-13T15:00:58.462Z,100394.12
2017-10-13T15:03:25.950Z,100388.23
2017-10-13T15:05:53.448Z,100394.77
2017-10-13T15:08:20.958Z,100393.27
2017-10-13T15:10:48.441Z,100388.48
2017-10-13T15:13:15.926Z,100386.08
2017-10-13T15:15:43.486Z,100386.81
2017-10-13T15:18:11.015Z,100385.02
2017-10-13T15:20:38.582Z,100386.29
2017-10-13T15:23:06.039Z,100390.63
2017-10-13T15:25:39.205Z,100394.88
2017-10-13T15:28:12.217Z,100400.66
2017-10-13T15:30:45.286Z,100393.94
2017-10-13T15:33:18.398Z,100391.67
2017-10-13T15:35:51.349Z,100392.80
2017-10-13T15:38:24.359Z,100397.45
2017-10-13T15:40:57.449Z,100398.45
2017-10-13T15:43:30.450Z,100393.67
2017-10-13T15:46:03.470Z,100401.08
2017-10-13T15:48:30.926Z,100401.88
2017-10-13T15:51:03.886Z,100400.53
2017-10-13T15:53:31.351Z,100398.84
2017-10-13T15:55:58.845Z,100395.80
2017-10-13T15:58:26.342Z,100406.87
2017-10-13T16:00:53.813Z,100397.77
2017-10-13T16:03:21.312Z,100398.82
2017-10-13T16:05:48.984Z,100398.97
2017-10-13T16:08:16.520Z,100400.13
2017-10-13T16:10:44.034Z,100400.31
2017-10-13T16:13:11.528Z,100412.42
2017-10-13T16:15:38.995Z,100412.02
2017-10-13T16:18:06.513Z,100411.39
2017-10-13T16:20:33.999Z,100411.17
2017-10-13T16:23:01.471Z,100413.20
2017-10-13T16:25:29.728Z,100413.92
2017-10-13T16:27:57.238Z,100419.70
2017-10-13T16:30:24.884Z,100415.72
2017-10-13T16:32:52.425Z,100423.00
2017-10-13T16:35:19.941Z,100419.14
2017-10-13T16:37:47.482Z,100428.70
2017-10-13T16:42:49.771Z,100430.63
2017-10-13T16:45:17.371Z,100434.25
2017-10-13T16:47:44.942Z,100434.44
2017-10-13T16:50:12.502Z,100436.67
2017-10-13T16:52:39.997Z,100445.34
2017-10-13T16:55:07.500Z,100448.23
2017-10-13T16:57:35.005Z,100439.20
2017-10-13T17:00:02.542Z,100444.10
2017-10-13T17:02:30.074Z,100439.96
2017-10-13T17:04:57.659Z,100438.31
2017-10-13T17:07:25.133Z,100439.09
2017-10-13T17:09:52.610Z,100453.87
2017-10-13T17:12:20.129Z,100442.20
2017-10-13T17:14:47.602Z,100450.41
2017-10-13T17:17:15.073Z,100445.14
2017-10-13T17:19:42.603Z,100454.31
2017-10-13T17:22:10.093Z,100450.44
2017-10-13T17:24:37.629Z,100445.05
2017-10-13T17:27:05.152Z,100455.94
2017-10-13T17:29:32.622Z,100454.72
2017-10-13T17:32:00.147Z,100463.87
2017-10-13T17:34:27.678Z,100457.53
2017-10-13T17:36:55.234Z,100463.70
2017-10-13T17:39:22.774Z,100469.38
2017-10-13T17:41:50.269Z,100460.59
2017-10-13T17:44:17.750Z,100468.86
2017-10-13T17:46:45.263Z,100481.09
2017-10-13T17:49:12.817Z,100469.62
2017-10-13T17:51:40.301Z,100461.49
2017-10-13T17:54:07.810Z,100462.89
2017-10-13T17:56:35.483Z,100459.69
2017-10-13T17:59:02.980Z,100459.08
2017-10-13T18:01:30.525Z,100459.26
2017-10-13T18:03:58.033Z,100461.77
2017-10-13T18:06:25.566Z,100460.09
2017-10-13T18:08:53.091Z,100458.05
2017-10-13T18:11:20.680Z,100463.80
2017-10-13T18:13:48.168Z,100456.70
2017-10-13T18:16:15.687Z,100454.15
2017-10-13T18:18:43.225Z,100456.98
2017-10-13T18:21:10.730Z,100454.95
2017-10-13T18:23:38.212Z,100451.42
2017-10-13T18:26:05.747Z,100455.30
2017-10-13T18:28:33.218Z,100457.83
2017-10-13T18:31:00.712Z,100457.55
2017-10-13T18:33:28.237Z,100462.20
2017-10-13T18:35:55.745Z,100459.12
2017-10-13T18:38:23.276Z,100460.84
2017-10-13T18:40:50.801Z,100467.94
2017-10-13T18:43:18.356Z,100474.45
2017-10-13T18:45:45.830Z,100474.81
2017-10-13T18:48:13.414Z,100485.46
2017-10-13T18:50:41.016Z,100483.06
2017-10-13T18:53:08.492Z,100491.26
2017-10-13T18:55:36.022Z,100491.31
2017-10-13T18:58:03.521Z,100499.17
2017-10-13T19:00:31.019Z,100503.52
2017-10-13T19:02:58.529Z,100507.78
2017-10-13T19:05:26.061Z,100508.98
2017-10-13T19:07:53.651Z,100515.26
2017-10-13T19:10:21.209Z,100510.30
2017-10-13T19:12:48.695Z,100519.03
2017-10-13T19:15:16.278Z,100520.03
2017-10-13T19:17:43.790Z,100515.67
2017-10-13T19:20:11.314Z,100522.32
2017-10-13T19:22:38.826Z,100516.52
2017-10-13T19:25:06.390Z,100525.21
2017-10-13T19:27:33.930Z,100523.57
2017-10-13T19:30:01.404Z,100524.64
2017-10-13T19:32:28.964Z,100525.67
2017-10-13T19:34:56.428Z,100524.99
2017-10-13T19:37:23.916Z,100527.74
2017-10-13T19:39:51.454Z,100540.42
2017-10-13T19:42:18.967Z,100546.27
2017-10-13T19:44:46.535Z,100545.70
2017-10-13T19:47:14.141Z,100536.11
2017-10-13T19:49:41.615Z,100544.59
2017-10-13T19:52:09.130Z,100545.61
2017-10-13T19:54:36.703Z,100543.36
2017-10-13T19:57:04.187Z,100552.92
2017-10-13T19:59:31.688Z,100547.84
2017-10-13T20:01:59.185Z,100542.88
2017-10-13T20:04:26.676Z,100544.95
2017-10-13T20:06:54.150Z,100542.45
2017-10-13T20:09:21.615Z,100550.98
2017-10-13T20:11:49.103Z,100552.91
2017-10-13T20:14:16.686Z,100554.64
2017-10-13T20:16:44.195Z,100556.48
2017-10-13T20:19:11.709Z,100560.23
2017-10-13T20:21:39.278Z,100556.28
2017-10-13T20:24:06.799Z,100565.78
2017-10-13T20:26:34.352Z,100568.90
2017-10-13T20:29:01.863Z,100574.34
2017-10-13T20:31:29.374Z,100577.53
2017-10-13T20:33:56.838Z,100580.17
2017-10-13T20:36:24.384Z,100575.86
2017-10-13T20:38:51.853Z,100587.25
2017-10-13T20:41:19.374Z,100584.42
2017-10-13T20:43:46.856Z,100584.17
2017-10-13T20:46:14.384Z,100589.30
2017-10-13T20:48:42.642Z,100585.36
2017-10-13T20:51:10.119Z,100589.17
2017-10-13T20:53:37.613Z,100595.95
2017-10-13T20:56:05.080Z,100591.62
2017-10-13T20:58:32.541Z,100593.47
2017-10-13T21:01:00.058Z,100587.27
2017-10-13T21:03:27.527Z,100582.60
2017-10-13T21:05:55.024Z,100585.19
2017-10-13T21:08:22.541Z,100584.75
2017-10-13T21:10:50.074Z,100590.78
2017-10-13T21:13:17.645Z,100586.23
2017-10-13T21:15:45.226Z,100593.80
2017-10-13T21:18:12.690Z,100592.72
2017-10-13T21:20:40.225Z,100590.58
2017-10-13T21:23:08.011Z,100590.78
2017-10-13T21:25:35.541Z,100584.02
2017-10-13T21:28:03.266Z,100578.96
2017-10-13T21:30:30.781Z,100582.77
2017-10-13T21:32:58.642Z,100579.37
2017-10-13T21:35:26.190Z,100581.98
2017-10-13T21:37:53.688Z,100584.25
2017-10-13T21:40:21.154Z,100580.73
2017-10-13T21:42:48.624Z,100582.95
2017-10-13T21:45:16.152Z,100587.30
2017-10-13T21:47:43.617Z,100584.00
2017-10-13T21:50:11.130Z,100586.56
2017-10-13T21:52:38.649Z,100582.33
2017-10-13T21:55:06.214Z,100579.97
2017-10-13T21:57:33.680Z,100578.36
2017-10-13T22:00:01.181Z,100577.62
2017-10-13T22:02:28.990Z,100583.09
2017-10-13T22:05:02.046Z,100575.82
2017-10-13T22:07:29.569Z,100580.45
2017-10-13T22:09:57.071Z,100579.27
2017-10-13T22:12:24.670Z,100576.55
2017-10-13T22:14:52.162Z,100579.37
2017-10-13T22:17:19.638Z,100572.55
2017-10-13T22:19:47.178Z,100577.36
2017-10-13T22:22:14.678Z,100576.45
2017-10-13T22:24:42.162Z,100581.09
2017-10-13T22:27:09.654Z,100569.06
2017-10-13T22:29:37.132Z,100565.63
2017-10-13T22:32:04.641Z,100560.57
2017-10-13T22:34:32.134Z,100560.99
2017-10-13T22:36:59.649Z,100560.72
2017-10-13T22:39:27.149Z,100565.02
2017-10-13T22:41:54.672Z,100564.06
2017-10-13T22:44:22.133Z,100565.05
2017-10-13T22:46:49.605Z,100570.17
2017-10-13T22:49:17.104Z,100566.11
2017-10-13T22:51:44.802Z,100560.62
2017-10-13T22:54:12.341Z,100576.75
2017-10-13T22:56:39.922Z,100570.27
2017-10-13T22:59:07.413Z,100569.40
2017-10-13T23:01:34.893Z,100567.78
2017-10-13T23:04:02.370Z,100571.80
2017-10-13T23:06:29.836Z,100566.16
2017-10-13T23:08:57.315Z,100560.23
2017-10-13T23:11:24.821Z,100561.96
2017-10-13T23:13:52.295Z,100566.16
2017-10-13T23:16:19.757Z,100562.77
2017-10-13T23:18:47.241Z,100563.63
2017-10-13T23:21:14.771Z,100569.94
2017-10-13T23:23:42.233Z,100560.62
2017-10-13T23:26:09.727Z,100562.34
2017-10-13T23:28:37.187Z,100563.25
2017-10-13T23:31:04.640Z,100558.91
2017-10-13T23:33:32.130Z,100556.95
2017-10-13T23:35:59.610Z,100566.91
2017-10-13T23:38:27.068Z,100563.23
2017-10-13T23:40:54.536Z,100567.09
2017-10-13T23:43:22.014Z,100563.70
2017-10-13T23:45:49.477Z,100571.59
2017-10-13T23:48:16.953Z,100566.36
2017-10-13T23:50:44.428Z,100577.02
2017-10-13T23:53:11.880Z,100577.17
2017-10-13T23:55:39.379Z,100575.97
2017-10-13T23:58:06.853Z,100577.38
